sensor_id;sensor_type;location;lat;lon;timestamp;pressure;altitude;pressure_sealevel;temperature;humidity
11682;BME280;5897;42.640;23.310;2023-05-23T00:02:15;93799.66;;;12.24;100.00
11682;BME280;5897;42.640;23.310;2023-05-23T00:04:42;93787.56;;;12.16;100.00
11682;BME280;5897;42.640;23.310;2023-05-23T00:07:08;93788.91;;;11.99;100.00
11682;BME280;5897;42.640;23.310;2023-05-23T00:09:35;93779.09;;;12.14;100.00
11682;BME280;5897;42.640;23.310;2023-05-23T00:12:02;93777.75;;;11.97;100.00
11682;BME280;5897;42.640;23.310;2023-05-23T00:14:29;93773.75;;;12.02;100.00
11682;BME280;5897;42.640;23.310;2023-05-23T00:16:59;93776.75;;;12.03;100.00
11682;BME280;5897;42.640;23.310;2023-05-23T00:19:26;93774.97;;;11.88;100.00
11682;BME280;5897;42.640;23.310;2023-05-23T00:21:53;93778.22;;;11.83;100.00
11682;BME280;5897;42.640;23.310;2023-05-23T00:24:23;93778.13;;;11.74;100.00
11682;BME280;5897;42.640;23.310;2023-05-23T00:26:50;93770.78;;;11.75;100.00
11682;BME280;5897;42.640;23.310;2023-05-23T00:29:16;93773.50;;;11.75;100.00
11682;BME280;5897;42.640;23.310;2023-05-23T00:31:44;93776.88;;;11.66;100.00
11682;BME280;5897;42.640;23.310;2023-05-23T00:34:13;93774.81;;;11.45;100.00
11682;BME280;5897;42.640;23.310;2023-05-23T00:36:42;93770.28;;;11.17;100.00
11682;BME280;5897;42.640;23.310;2023-05-23T00:39:12;93766.50;;;11.15;100.00
11682;BME280;5897;42.640;23.310;2023-05-23T00:41:43;93778.28;;;11.33;100.00
11682;BME280;5897;42.640;23.310;2023-05-23T00:44:10;93781.53;;;11.41;100.00
11682;BME280;5897;42.640;23.310;2023-05-23T00:46:37;93775.44;;;11.49;100.00
11682;BME280;5897;42.640;23.310;2023-05-23T00:49:05;93784.44;;;11.59;100.00
11682;BME280;5897;42.640;23.310;2023-05-23T00:51:33;93771.88;;;11.65;100.00
11682;BME280;5897;42.640;23.310;2023-05-23T00:54:01;93773.19;;;11.60;100.00
11682;BME280;5897;42.640;23.310;2023-05-23T00:56:30;93772.09;;;11.57;100.00
11682;BME280;5897;42.640;23.310;2023-05-23T00:58:58;93770.69;;;11.66;100.00
11682;BME280;5897;42.640;23.310;2023-05-23T01:01:25;93778.81;;;11.53;100.00
11682;BME280;5897;42.640;23.310;2023-05-23T01:03:52;93775.03;;;11.63;100.00
11682;BME280;5897;42.640;23.310;2023-05-23T01:06:19;93778.59;;;11.60;100.00
11682;BME280;5897;42.640;23.310;2023-05-23T01:08:47;93767.44;;;11.71;100.00
11682;BME280;5897;42.640;23.310;2023-05-23T01:11:24;93761.25;;;11.57;100.00
11682;BME280;5897;42.640;23.310;2023-05-23T01:13:58;93778.13;;;11.74;100.00
11682;BME280;5897;42.640;23.310;2023-05-23T01:16:33;93790.81;;;11.77;100.00
11682;BME280;5897;42.640;23.310;2023-05-23T01:19:15;93795.13;;;11.87;100.00
11682;BME280;5897;42.640;23.310;2023-05-23T01:21:45;93785.81;;;11.88;100.00
11682;BME280;5897;42.640;23.310;2023-05-23T01:24:29;93782.03;;;11.86;100.00
11682;BME280;5897;42.640;23.310;2023-05-23T01:27:07;93777.28;;;11.77;100.00
11682;BME280;5897;42.640;23.310;2023-05-23T01:29:38;93776.00;;;11.69;100.00
11682;BME280;5897;42.640;23.310;2023-05-23T01:32:07;93775.44;;;11.74;100.00
11682;BME280;5897;42.640;23.310;2023-05-23T01:34:37;93775.84;;;11.85;100.00
11682;BME280;5897;42.640;23.310;2023-05-23T01:37:07;93774.84;;;11.92;100.00
11682;BME280;5897;42.640;23.310;2023-05-23T01:39:35;93765.53;;;11.93;100.00
11682;BME280;5897;42.640;23.310;2023-05-23T01:42:02;93760.34;;;11.98;100.00
11682;BME280;5897;42.640;23.310;2023-05-23T01:44:30;93769.94;;;12.12;100.00
11682;BME280;5897;42.640;23.310;2023-05-23T01:47:00;93770.38;;;11.98;100.00
11682;BME280;5897;42.640;23.310;2023-05-23T01:49:28;93770.88;;;11.84;100.00
11682;BME280;5897;42.640;23.310;2023-05-23T01:51:56;93757.47;;;11.80;100.00
11682;BME280;5897;42.640;23.310;2023-05-23T01:54:25;93769.13;;;11.90;100.00
11682;BME280;5897;42.640;23.310;2023-05-23T01:56:54;93764.28;;;11.85;100.00
11682;BME280;5897;42.640;23.310;2023-05-23T01:59:21;93761.22;;;11.82;100.00
11682;BME280;5897;42.640;23.310;2023-05-23T02:01:48;93757.63;;;11.98;100.00
11682;BME280;5897;42.640;23.310;2023-05-23T02:04:17;93760.22;;;12.02;100.00
11682;BME280;5897;42.640;23.310;2023-05-23T02:06:44;93758.56;;;12.04;100.00
11682;BME280;5897;42.640;23.310;2023-05-23T02:09:11;93756.59;;;12.04;100.00
11682;BME280;5897;42.640;23.310;2023-05-23T02:11:37;93753.19;;;11.92;100.00
11682;BME280;5897;42.640;23.310;2023-05-23T02:14:04;93759.72;;;11.82;100.00
11682;BME280;5897;42.640;23.310;2023-05-23T02:16:31;93768.59;;;11.82;100.00
11682;BME280;5897;42.640;23.310;2023-05-23T02:19:00;93772.16;;;11.92;100.00
11682;BME280;5897;42.640;23.310;2023-05-23T02:21:29;93768.38;;;11.89;100.00
11682;BME280;5897;42.640;23.310;2023-05-23T02:23:56;93768.38;;;11.77;100.00
11682;BME280;5897;42.640;23.310;2023-05-23T02:26:23;93765.38;;;11.75;100.00
11682;BME280;5897;42.640;23.310;2023-05-23T02:28:51;93769.69;;;11.72;100.00
11682;BME280;5897;42.640;23.310;2023-05-23T02:31:18;93769.41;;;11.70;100.00
11682;BME280;5897;42.640;23.310;2023-05-23T02:33:45;93768.44;;;11.64;100.00
11682;BME280;5897;42.640;23.310;2023-05-23T02:36:12;93765.91;;;11.70;100.00
11682;BME280;5897;42.640;23.310;2023-05-23T02:38:40;93754.75;;;11.80;100.00
11682;BME280;5897;42.640;23.310;2023-05-23T02:41:07;93763.50;;;11.84;100.00
11682;BME280;5897;42.640;23.310;2023-05-23T02:43:34;93752.06;;;11.80;100.00
11682;BME280;5897;42.640;23.310;2023-05-23T02:46:00;93748.16;;;11.81;100.00
11682;BME280;5897;42.640;23.310;2023-05-23T02:48:27;93744.88;;;11.86;100.00
11682;BME280;5897;42.640;23.310;2023-05-23T02:50:54;93745.63;;;11.87;100.00
11682;BME280;5897;42.640;23.310;2023-05-23T02:53:21;93745.91;;;11.67;100.00
11682;BME280;5897;42.640;23.310;2023-05-23T02:55:49;93748.28;;;11.52;100.00
11682;BME280;5897;42.640;23.310;2023-05-23T02:58:16;93742.03;;;11.31;100.00
11682;BME280;5897;42.640;23.310;2023-05-23T03:00:43;93750.19;;;11.18;100.00
11682;BME280;5897;42.640;23.310;2023-05-23T03:03:10;93754.41;;;11.19;100.00
11682;BME280;5897;42.640;23.310;2023-05-23T03:05:37;93750.28;;;11.27;100.00
11682;BME280;5897;42.640;23.310;2023-05-23T03:08:04;93750.94;;;11.31;100.00
11682;BME280;5897;42.640;23.310;2023-05-23T03:10:31;93750.81;;;11.35;100.00
11682;BME280;5897;42.640;23.310;2023-05-23T03:12:59;93756.75;;;11.42;100.00
11682;BME280;5897;42.640;23.310;2023-05-23T03:15:25;93761.06;;;11.52;100.00
11682;BME280;5897;42.640;23.310;2023-05-23T03:17:52;93754.13;;;11.51;100.00
11682;BME280;5897;42.640;23.310;2023-05-23T03:20:19;93753.16;;;11.45;100.00
11682;BME280;5897;42.640;23.310;2023-05-23T03:22:46;93752.00;;;11.46;100.00
11682;BME280;5897;42.640;23.310;2023-05-23T03:25:13;93720.63;;;11.36;100.00
11682;BME280;5897;42.640;23.310;2023-05-23T03:27:40;93756.53;;;11.62;100.00
11682;BME280;5897;42.640;23.310;2023-05-23T03:30:09;93757.63;;;11.64;100.00
11682;BME280;5897;42.640;23.310;2023-05-23T03:32:36;93759.00;;;11.69;100.00
11682;BME280;5897;42.640;23.310;2023-05-23T03:35:04;93755.75;;;11.74;100.00
11682;BME280;5897;42.640;23.310;2023-05-23T03:37:30;93763.63;;;11.81;100.00
11682;BME280;5897;42.640;23.310;2023-05-23T03:39:57;93776.47;;;11.89;100.00
11682;BME280;5897;42.640;23.310;2023-05-23T03:42:24;93778.94;;;11.96;100.00
11682;BME280;5897;42.640;23.310;2023-05-23T03:44:51;93776.56;;;11.98;100.00
11682;BME280;5897;42.640;23.310;2023-05-23T03:47:19;93777.97;;;12.02;100.00
11682;BME280;5897;42.640;23.310;2023-05-23T03:49:46;93779.69;;;12.09;100.00
11682;BME280;5897;42.640;23.310;2023-05-23T03:52:13;93783.34;;;12.15;100.00
11682;BME280;5897;42.640;23.310;2023-05-23T03:54:40;93775.66;;;12.13;100.00
11682;BME280;5897;42.640;23.310;2023-05-23T03:57:07;93782.31;;;12.21;100.00
11682;BME280;5897;42.640;23.310;2023-05-23T03:59:34;93781.63;;;12.30;100.00
11682;BME280;5897;42.640;23.310;2023-05-23T04:02:01;93783.91;;;12.31;100.00
11682;BME280;5897;42.640;23.310;2023-05-23T04:04:29;93784.34;;;12.30;100.00
11682;BME280;5897;42.640;23.310;2023-05-23T04:06:58;93784.00;;;12.40;100.00
11682;BME280;5897;42.640;23.310;2023-05-23T04:09:25;93783.47;;;12.33;100.00
11682;BME280;5897;42.640;23.310;2023-05-23T04:11:53;93791.34;;;12.40;100.00
11682;BME280;5897;42.640;23.310;2023-05-23T04:14:20;93779.06;;;12.48;100.00
11682;BME280;5897;42.640;23.310;2023-05-23T04:16:47;93779.06;;;12.48;100.00
11682;BME280;5897;42.640;23.310;2023-05-23T04:19:13;93777.50;;;12.38;100.00
11682;BME280;5897;42.640;23.310;2023-05-23T04:21:42;93777.25;;;12.23;100.00
11682;BME280;5897;42.640;23.310;2023-05-23T04:24:09;93779.69;;;12.30;100.00
11682;BME280;5897;42.640;23.310;2023-05-23T04:26:36;93774.78;;;12.38;100.00
11682;BME280;5897;42.640;23.310;2023-05-23T04:29:03;93775.31;;;12.45;100.00
11682;BME280;5897;42.640;23.310;2023-05-23T04:31:31;93774.34;;;12.61;100.00
11682;BME280;5897;42.640;23.310;2023-05-23T04:33:59;93771.50;;;12.64;100.00
11682;BME280;5897;42.640;23.310;2023-05-23T04:36:26;93772.50;;;12.58;100.00
11682;BME280;5897;42.640;23.310;2023-05-23T04:38:56;93784.47;;;12.69;100.00
11682;BME280;5897;42.640;23.310;2023-05-23T04:41:22;93788.13;;;12.75;100.00
11682;BME280;5897;42.640;23.310;2023-05-23T04:43:49;93788.00;;;12.79;100.00
11682;BME280;5897;42.640;23.310;2023-05-23T04:46:19;93790.75;;;12.88;100.00
11682;BME280;5897;42.640;23.310;2023-05-23T04:48:50;93789.72;;;12.85;100.00
11682;BME280;5897;42.640;23.310;2023-05-23T04:51:17;93788.81;;;12.88;100.00
11682;BME280;5897;42.640;23.310;2023-05-23T04:53:45;93796.16;;;12.88;100.00
11682;BME280;5897;42.640;23.310;2023-05-23T04:56:14;93799.47;;;12.83;100.00
11682;BME280;5897;42.640;23.310;2023-05-23T04:58:41;93802.91;;;12.74;100.00
11682;BME280;5897;42.640;23.310;2023-05-23T05:01:09;93806.72;;;12.86;100.00
11682;BME280;5897;42.640;23.310;2023-05-23T05:03:36;93803.38;;;12.82;100.00
11682;BME280;5897;42.640;23.310;2023-05-23T05:06:03;93797.59;;;12.71;100.00
11682;BME280;5897;42.640;23.310;2023-05-23T05:08:30;93805.19;;;12.85;100.00
11682;BME280;5897;42.640;23.310;2023-05-23T05:10:57;93807.34;;;12.90;100.00
11682;BME280;5897;42.640;23.310;2023-05-23T05:13:25;93791.94;;;12.87;100.00
11682;BME280;5897;42.640;23.310;2023-05-23T05:15:52;93811.97;;;13.02;100.00
11682;BME280;5897;42.640;23.310;2023-05-23T05:18:19;93810.75;;;13.03;100.00
11682;BME280;5897;42.640;23.310;2023-05-23T05:20:45;93815.47;;;13.11;100.00
11682;BME280;5897;42.640;23.310;2023-05-23T05:23:12;93815.47;;;12.90;100.00
11682;BME280;5897;42.640;23.310;2023-05-23T05:25:39;93811.44;;;12.94;100.00
11682;BME280;5897;42.640;23.310;2023-05-23T05:28:06;93807.31;;;13.02;100.00
11682;BME280;5897;42.640;23.310;2023-05-23T05:30:34;93808.41;;;13.14;100.00
11682;BME280;5897;42.640;23.310;2023-05-23T05:33:01;93814.97;;;13.04;100.00
11682;BME280;5897;42.640;23.310;2023-05-23T05:35:29;93807.03;;;13.09;100.00
11682;BME280;5897;42.640;23.310;2023-05-23T05:37:56;93810.47;;;13.10;100.00
11682;BME280;5897;42.640;23.310;2023-05-23T05:40:23;93810.13;;;13.29;100.00
11682;BME280;5897;42.640;23.310;2023-05-23T05:42:50;93816.34;;;13.39;100.00
11682;BME280;5897;42.640;23.310;2023-05-23T05:45:17;93823.31;;;13.49;100.00
11682;BME280;5897;42.640;23.310;2023-05-23T05:47:45;93815.22;;;13.58;100.00
11682;BME280;5897;42.640;23.310;2023-05-23T05:50:12;93816.63;;;13.71;100.00
11682;BME280;5897;42.640;23.310;2023-05-23T05:52:40;93817.81;;;13.70;100.00
11682;BME280;5897;42.640;23.310;2023-05-23T05:55:08;93821.34;;;13.80;100.00
11682;BME280;5897;42.640;23.310;2023-05-23T05:57:35;93825.88;;;13.92;100.00
11682;BME280;5897;42.640;23.310;2023-05-23T06:00:04;93822.72;;;14.02;100.00
11682;BME280;5897;42.640;23.310;2023-05-23T06:02:36;93821.38;;;14.07;100.00
11682;BME280;5897;42.640;23.310;2023-05-23T06:05:05;93816.25;;;14.09;100.00
11682;BME280;5897;42.640;23.310;2023-05-23T06:07:33;93823.66;;;14.17;100.00
11682;BME280;5897;42.640;23.310;2023-05-23T06:10:00;93812.97;;;14.41;100.00
11682;BME280;5897;42.640;23.310;2023-05-23T06:12:27;93815.72;;;14.59;100.00
11682;BME280;5897;42.640;23.310;2023-05-23T06:14:53;93821.88;;;14.86;100.00
11682;BME280;5897;42.640;23.310;2023-05-23T06:17:20;93824.41;;;15.08;100.00
11682;BME280;5897;42.640;23.310;2023-05-23T06:19:47;93826.34;;;15.25;100.00
11682;BME280;5897;42.640;23.310;2023-05-23T06:22:15;93828.75;;;15.41;100.00
11682;BME280;5897;42.640;23.310;2023-05-23T06:24:42;93831.09;;;15.57;100.00
11682;BME280;5897;42.640;23.310;2023-05-23T06:27:09;93827.81;;;15.77;100.00
11682;BME280;5897;42.640;23.310;2023-05-23T06:29:35;93826.56;;;15.87;100.00
11682;BME280;5897;42.640;23.310;2023-05-23T06:32:02;93817.88;;;15.97;100.00
11682;BME280;5897;42.640;23.310;2023-05-23T06:34:29;93831.63;;;16.03;100.00
11682;BME280;5897;42.640;23.310;2023-05-23T06:36:56;93830.69;;;16.06;100.00
11682;BME280;5897;42.640;23.310;2023-05-23T06:39:24;93836.75;;;16.10;100.00
11682;BME280;5897;42.640;23.310;2023-05-23T06:41:51;93839.66;;;16.30;100.00
11682;BME280;5897;42.640;23.310;2023-05-23T06:44:18;93837.91;;;15.85;100.00
11682;BME280;5897;42.640;23.310;2023-05-23T06:46:45;93825.25;;;16.06;100.00
11682;BME280;5897;42.640;23.310;2023-05-23T06:49:12;93826.47;;;16.28;100.00
11682;BME280;5897;42.640;23.310;2023-05-23T06:51:38;93832.69;;;16.29;100.00
11682;BME280;5897;42.640;23.310;2023-05-23T06:54:05;93830.81;;;16.35;100.00
11682;BME280;5897;42.640;23.310;2023-05-23T06:56:34;93818.97;;;16.47;100.00
11682;BME280;5897;42.640;23.310;2023-05-23T06:59:00;93820.19;;;16.60;100.00
11682;BME280;5897;42.640;23.310;2023-05-23T07:01:27;93813.09;;;16.77;100.00
11682;BME280;5897;42.640;23.310;2023-05-23T07:03:54;93818.69;;;16.97;100.00
11682;BME280;5897;42.640;23.310;2023-05-23T07:06:21;93813.50;;;17.14;100.00
11682;BME280;5897;42.640;23.310;2023-05-23T07:08:47;93811.34;;;17.32;100.00
11682;BME280;5897;42.640;23.310;2023-05-23T07:11:14;93805.44;;;17.48;100.00
11682;BME280;5897;42.640;23.310;2023-05-23T07:13:42;93807.22;;;17.66;100.00
11682;BME280;5897;42.640;23.310;2023-05-23T07:16:09;93805.38;;;17.77;100.00
11682;BME280;5897;42.640;23.310;2023-05-23T07:18:36;93800.97;;;18.00;97.65
11682;BME280;5897;42.640;23.310;2023-05-23T07:21:03;93806.34;;;18.09;96.37
11682;BME280;5897;42.640;23.310;2023-05-23T07:23:31;93800.06;;;18.23;97.42
11682;BME280;5897;42.640;23.310;2023-05-23T07:25:58;93795.28;;;18.18;93.04
11682;BME280;5897;42.640;23.310;2023-05-23T07:28:26;93792.97;;;18.31;93.06
11682;BME280;5897;42.640;23.310;2023-05-23T07:30:54;93794.06;;;18.39;94.38
11682;BME280;5897;42.640;23.310;2023-05-23T07:33:22;93796.81;;;18.59;93.46
11682;BME280;5897;42.640;23.310;2023-05-23T07:35:49;93797.03;;;18.55;92.25
11682;BME280;5897;42.640;23.310;2023-05-23T07:38:16;93798.69;;;18.73;90.64
11682;BME280;5897;42.640;23.310;2023-05-23T07:40:43;93794.16;;;18.90;89.26
11682;BME280;5897;42.640;23.310;2023-05-23T07:43:10;93793.69;;;18.91;86.45
11682;BME280;5897;42.640;23.310;2023-05-23T07:45:37;93796.31;;;19.06;86.21
11682;BME280;5897;42.640;23.310;2023-05-23T07:48:05;93787.25;;;19.20;85.06
11682;BME280;5897;42.640;23.310;2023-05-23T07:50:32;93789.50;;;19.21;84.79
11682;BME280;5897;42.640;23.310;2023-05-23T07:52:59;93790.19;;;19.42;81.08
11682;BME280;5897;42.640;23.310;2023-05-23T07:55:26;93784.59;;;19.56;79.59
11682;BME280;5897;42.640;23.310;2023-05-23T07:57:53;93780.97;;;19.70;81.74
11682;BME280;5897;42.640;23.310;2023-05-23T08:00:20;93784.81;;;19.89;78.54
11682;BME280;5897;42.640;23.310;2023-05-23T08:02:47;93788.88;;;19.99;79.69
11682;BME280;5897;42.640;23.310;2023-05-23T08:05:16;93787.22;;;19.76;82.38
11682;BME280;5897;42.640;23.310;2023-05-23T08:07:43;93782.63;;;19.99;80.82
11682;BME280;5897;42.640;23.310;2023-05-23T08:10:10;93782.19;;;20.06;78.20
11682;BME280;5897;42.640;23.310;2023-05-23T08:12:37;93774.78;;;20.12;77.00
11682;BME280;5897;42.640;23.310;2023-05-23T08:15:04;93778.59;;;20.25;76.04
11682;BME280;5897;42.640;23.310;2023-05-23T08:17:32;93781.25;;;20.62;76.34
11682;BME280;5897;42.640;23.310;2023-05-23T08:19:59;93773.28;;;20.75;75.13
11682;BME280;5897;42.640;23.310;2023-05-23T08:22:27;93775.09;;;20.89;76.27
11682;BME280;5897;42.640;23.310;2023-05-23T08:24:54;93776.63;;;20.95;75.31
11682;BME280;5897;42.640;23.310;2023-05-23T08:27:21;93768.81;;;20.83;76.69
11682;BME280;5897;42.640;23.310;2023-05-23T08:29:48;93767.19;;;21.13;74.63
11682;BME280;5897;42.640;23.310;2023-05-23T08:32:15;93767.44;;;21.26;72.25
11682;BME280;5897;42.640;23.310;2023-05-23T08:34:41;93770.69;;;21.52;73.82
11682;BME280;5897;42.640;23.310;2023-05-23T08:37:08;93775.94;;;21.77;70.05
11682;BME280;5897;42.640;23.310;2023-05-23T08:39:36;93776.47;;;21.81;70.44
11682;BME280;5897;42.640;23.310;2023-05-23T08:42:04;93766.44;;;21.89;68.88
11682;BME280;5897;42.640;23.310;2023-05-23T08:44:31;93763.19;;;22.02;69.61
11682;BME280;5897;42.640;23.310;2023-05-23T08:47:00;93765.88;;;22.24;68.22
11682;BME280;5897;42.640;23.310;2023-05-23T08:49:30;93767.13;;;22.17;65.42
11682;BME280;5897;42.640;23.310;2023-05-23T08:52:00;93763.59;;;22.39;64.95
11682;BME280;5897;42.640;23.310;2023-05-23T08:54:28;93760.34;;;22.46;61.56
11682;BME280;5897;42.640;23.310;2023-05-23T08:56:56;93744.81;;;22.32;59.01
11682;BME280;5897;42.640;23.310;2023-05-23T08:59:24;93755.81;;;22.48;58.58
11682;BME280;5897;42.640;23.310;2023-05-23T09:01:53;93757.09;;;22.47;57.10
11682;BME280;5897;42.640;23.310;2023-05-23T09:04:20;93753.47;;;22.69;60.35
11682;BME280;5897;42.640;23.310;2023-05-23T09:06:48;93750.50;;;22.67;59.40
11682;BME280;5897;42.640;23.310;2023-05-23T09:09:15;93760.97;;;22.74;57.07
11682;BME280;5897;42.640;23.310;2023-05-23T09:11:42;93758.56;;;23.00;56.59
11682;BME280;5897;42.640;23.310;2023-05-23T09:14:11;93764.94;;;22.84;53.97
11682;BME280;5897;42.640;23.310;2023-05-23T09:16:45;93759.56;;;23.02;54.05
11682;BME280;5897;42.640;23.310;2023-05-23T09:19:12;93753.44;;;23.26;50.46
11682;BME280;5897;42.640;23.310;2023-05-23T09:21:42;93741.03;;;23.43;47.17
11682;BME280;5897;42.640;23.310;2023-05-23T09:24:09;93754.81;;;23.43;45.91
11682;BME280;5897;42.640;23.310;2023-05-23T09:26:36;93757.94;;;23.58;46.22
11682;BME280;5897;42.640;23.310;2023-05-23T09:29:04;93749.59;;;23.69;44.80
11682;BME280;5897;42.640;23.310;2023-05-23T09:31:33;93746.44;;;23.84;45.50
11682;BME280;5897;42.640;23.310;2023-05-23T09:34:00;93749.19;;;23.84;45.96
11682;BME280;5897;42.640;23.310;2023-05-23T09:36:27;93747.19;;;23.84;43.55
11682;BME280;5897;42.640;23.310;2023-05-23T09:38:54;93750.59;;;24.01;41.19
11682;BME280;5897;42.640;23.310;2023-05-23T09:41:22;93739.94;;;23.81;41.18
11682;BME280;5897;42.640;23.310;2023-05-23T09:43:50;93738.78;;;23.71;43.01
11682;BME280;5897;42.640;23.310;2023-05-23T09:46:18;93731.81;;;23.94;43.06
11682;BME280;5897;42.640;23.310;2023-05-23T09:48:47;93735.41;;;23.89;42.69
11682;BME280;5897;42.640;23.310;2023-05-23T09:51:18;93731.66;;;24.11;43.32
11682;BME280;5897;42.640;23.310;2023-05-23T09:53:46;93736.94;;;24.33;43.73
11682;BME280;5897;42.640;23.310;2023-05-23T09:56:15;93722.09;;;24.60;42.64
11682;BME280;5897;42.640;23.310;2023-05-23T09:58:46;93726.78;;;24.65;39.34
11682;BME280;5897;42.640;23.310;2023-05-23T10:01:13;93730.25;;;24.47;40.00
11682;BME280;5897;42.640;23.310;2023-05-23T10:03:44;93736.38;;;24.16;40.68
11682;BME280;5897;42.640;23.310;2023-05-23T10:06:19;93737.22;;;24.53;41.04
11682;BME280;5897;42.640;23.310;2023-05-23T10:08:53;93730.06;;;24.39;41.20
11682;BME280;5897;42.640;23.310;2023-05-23T10:14:17;93719.63;;;24.75;39.06
11682;BME280;5897;42.640;23.310;2023-05-23T10:16:54;93719.34;;;24.97;37.44
11682;BME280;5897;42.640;23.310;2023-05-23T10:19:23;93705.28;;;24.58;37.67
11682;BME280;5897;42.640;23.310;2023-05-23T10:21:56;93715.69;;;24.89;36.01
11682;BME280;5897;42.640;23.310;2023-05-23T10:24:25;93705.53;;;24.60;37.50
11682;BME280;5897;42.640;23.310;2023-05-23T10:26:52;93723.06;;;25.18;35.69
11682;BME280;5897;42.640;23.310;2023-05-23T10:29:20;93713.59;;;25.45;35.47
11682;BME280;5897;42.640;23.310;2023-05-23T10:31:48;93712.94;;;24.89;37.28
11682;BME280;5897;42.640;23.310;2023-05-23T10:34:22;93715.59;;;25.13;36.51
11682;BME280;5897;42.640;23.310;2023-05-23T10:36:59;93709.84;;;25.29;34.85
11682;BME280;5897;42.640;23.310;2023-05-23T10:39:38;93704.00;;;25.33;36.75
11682;BME280;5897;42.640;23.310;2023-05-23T10:42:11;93708.53;;;25.49;35.67
11682;BME280;5897;42.640;23.310;2023-05-23T10:44:40;93699.84;;;25.71;35.90
11682;BME280;5897;42.640;23.310;2023-05-23T10:47:07;93700.63;;;25.71;34.90
11682;BME280;5897;42.640;23.310;2023-05-23T10:49:38;93691.81;;;25.86;35.41
11682;BME280;5897;42.640;23.310;2023-05-23T10:52:07;93690.88;;;26.09;34.80
11682;BME280;5897;42.640;23.310;2023-05-23T10:54:34;93698.47;;;26.09;35.96
11682;BME280;5897;42.640;23.310;2023-05-23T10:57:02;93695.59;;;26.40;34.90
11682;BME280;5897;42.640;23.310;2023-05-23T10:59:30;93697.94;;;26.62;34.17
11682;BME280;5897;42.640;23.310;2023-05-23T11:01:58;93700.34;;;26.53;33.87
11682;BME280;5897;42.640;23.310;2023-05-23T11:04:26;93687.16;;;26.07;35.92
11682;BME280;5897;42.640;23.310;2023-05-23T11:06:54;93689.88;;;25.81;35.10
11682;BME280;5897;42.640;23.310;2023-05-23T11:09:23;93674.38;;;26.17;32.03
11682;BME280;5897;42.640;23.310;2023-05-23T11:12:00;93685.44;;;26.30;33.43
11682;BME280;5897;42.640;23.310;2023-05-23T11:14:32;93687.06;;;26.51;33.81
11682;BME280;5897;42.640;23.310;2023-05-23T11:17:00;93673.78;;;26.96;33.46
11682;BME280;5897;42.640;23.310;2023-05-23T11:19:27;93684.09;;;26.96;33.80
11682;BME280;5897;42.640;23.310;2023-05-23T11:21:57;93676.50;;;26.50;31.13
11682;BME280;5897;42.640;23.310;2023-05-23T11:24:50;93671.81;;;27.04;32.69
11682;BME280;5897;42.640;23.310;2023-05-23T11:27:25;93684.16;;;26.83;32.53
11682;BME280;5897;42.640;23.310;2023-05-23T11:30:00;93678.53;;;26.62;32.71
11682;BME280;5897;42.640;23.310;2023-05-23T11:32:28;93668.34;;;26.91;32.14
11682;BME280;5897;42.640;23.310;2023-05-23T11:34:58;93683.09;;;27.06;30.79
11682;BME280;5897;42.640;23.310;2023-05-23T11:37:26;93673.56;;;27.28;30.60
11682;BME280;5897;42.640;23.310;2023-05-23T11:39:55;93670.19;;;27.42;30.97
11682;BME280;5897;42.640;23.310;2023-05-23T11:42:22;93666.19;;;26.97;30.72
11682;BME280;5897;42.640;23.310;2023-05-23T11:44:49;93658.53;;;27.23;29.61
11682;BME280;5897;42.640;23.310;2023-05-23T11:47:16;93654.16;;;27.48;30.82
11682;BME280;5897;42.640;23.310;2023-05-23T11:49:44;93652.41;;;27.79;32.31
11682;BME280;5897;42.640;23.310;2023-05-23T11:52:11;93659.81;;;27.84;30.86
11682;BME280;5897;42.640;23.310;2023-05-23T11:54:39;93662.84;;;28.14;30.49
11682;BME280;5897;42.640;23.310;2023-05-23T11:57:08;93661.13;;;28.11;29.14
11682;BME280;5897;42.640;23.310;2023-05-23T11:59:35;93651.19;;;28.15;28.86
11682;BME280;5897;42.640;23.310;2023-05-23T12:02:04;93650.75;;;27.63;28.90
11682;BME280;5897;42.640;23.310;2023-05-23T12:04:33;93641.28;;;27.58;29.02
11682;BME280;5897;42.640;23.310;2023-05-23T12:07:03;93642.56;;;27.98;29.50
11682;BME280;5897;42.640;23.310;2023-05-23T12:09:30;93639.78;;;28.34;29.59
11682;BME280;5897;42.640;23.310;2023-05-23T12:11:58;93641.81;;;28.61;28.94
11682;BME280;5897;42.640;23.310;2023-05-23T12:14:27;93642.34;;;28.60;28.91
11682;BME280;5897;42.640;23.310;2023-05-23T12:16:54;93627.13;;;28.96;28.88
11682;BME280;5897;42.640;23.310;2023-05-23T12:19:22;93632.09;;;28.90;27.24
11682;BME280;5897;42.640;23.310;2023-05-23T12:21:49;93631.09;;;28.73;27.45
11682;BME280;5897;42.640;23.310;2023-05-23T12:24:17;93614.06;;;28.76;26.56
11682;BME280;5897;42.640;23.310;2023-05-23T12:26:49;93614.41;;;28.73;28.61
11682;BME280;5897;42.640;23.310;2023-05-23T12:29:18;93615.31;;;29.11;27.72
11682;BME280;5897;42.640;23.310;2023-05-23T12:31:48;93609.19;;;29.35;27.18
11682;BME280;5897;42.640;23.310;2023-05-23T12:34:16;93603.63;;;29.20;27.58
11682;BME280;5897;42.640;23.310;2023-05-23T12:36:43;93602.19;;;28.68;27.96
11682;BME280;5897;42.640;23.310;2023-05-23T12:39:10;93604.66;;;28.44;28.47
11682;BME280;5897;42.640;23.310;2023-05-23T12:41:40;93600.31;;;28.63;28.83
11682;BME280;5897;42.640;23.310;2023-05-23T12:44:07;93599.09;;;28.87;28.82
11682;BME280;5897;42.640;23.310;2023-05-23T12:46:34;93606.19;;;28.52;27.98
11682;BME280;5897;42.640;23.310;2023-05-23T12:49:02;93602.06;;;28.38;28.09
11682;BME280;5897;42.640;23.310;2023-05-23T12:51:29;93600.53;;;28.80;30.26
11682;BME280;5897;42.640;23.310;2023-05-23T12:53:56;93582.47;;;29.09;28.56
11682;BME280;5897;42.640;23.310;2023-05-23T12:56:23;93595.06;;;29.10;27.61
11682;BME280;5897;42.640;23.310;2023-05-23T12:58:50;93584.25;;;28.92;27.38
11682;BME280;5897;42.640;23.310;2023-05-23T13:01:18;93586.25;;;28.76;27.78
11682;BME280;5897;42.640;23.310;2023-05-23T13:03:45;93576.16;;;28.51;27.93